createdAt,value
2019-05-02T00:01:01.151Z,18.03
2019-05-02T00:03:36.032Z,15.77
2019-05-02T00:06:07.362Z,14.73
2019-05-02T00:08:38.391Z,15.40
2019-05-02T00:11:11.461Z,17.10
2019-05-02T00:13:42.233Z,14.10
2019-05-02T00:16:14.178Z,15.90
2019-05-02T00:18:46.743Z,14.30
2019-05-02T00:21:17.313Z,16.13
2019-05-02T00:23:47.934Z,16.17
2019-05-02T00:26:18.507Z,15.77
2019-05-02T00:28:49.930Z,16.00
2019-05-02T00:31:21.653Z,18.03
2019-05-02T00:33:52.120Z,17.50
2019-05-02T00:36:22.607Z,19.27
2019-05-02T00:38:53.077Z,19.13
2019-05-02T00:41:24.344Z,15.60
2019-05-02T00:43:54.847Z,19.93
2019-05-02T00:46:25.343Z,15.80
2019-05-02T00:48:59.767Z,15.63
2019-05-02T00:51:29.742Z,18.40
2019-05-02T00:54:00.250Z,18.60
2019-05-02T00:56:30.746Z,15.90
2019-05-02T00:59:02.242Z,19.60
2019-05-02T01:01:35.907Z,17.90
2019-05-02T01:04:27.645Z,19.00
2019-05-02T01:06:56.865Z,15.73
2019-05-02T01:09:27.564Z,16.17
2019-05-02T01:11:58.058Z,17.93
2019-05-02T01:14:31.721Z,14.63
2019-05-02T01:17:00.826Z,15.90
2019-05-02T01:19:31.642Z,17.30
2019-05-02T01:22:02.792Z,17.93
2019-05-02T01:24:34.077Z,18.30
2019-05-02T01:27:07.273Z,19.13
2019-05-02T01:29:39.685Z,16.70
2019-05-02T01:32:11.794Z,19.87
2019-05-02T01:34:54.452Z,16.70
2019-05-02T01:37:27.285Z,18.73
2019-05-02T01:39:57.802Z,17.60
2019-05-02T01:42:39.412Z,18.33
2019-05-02T01:45:00.647Z,16.83
2019-05-02T01:47:34.162Z,17.20
2019-05-02T01:50:03.404Z,16.53
2019-05-02T01:52:34.443Z,17.07
2019-05-02T01:55:07.253Z,17.37
2019-05-02T01:57:40.012Z,20.47
2019-05-02T02:00:11.539Z,17.10
2019-05-02T02:02:41.967Z,15.83
2019-05-02T02:05:12.807Z,16.70
2019-05-02T02:07:43.308Z,18.33
2019-05-02T02:10:14.996Z,16.20
2019-05-02T02:13:02.824Z,15.67
2019-05-02T02:15:18.622Z,21.00
2019-05-02T02:17:51.465Z,16.67
2019-05-02T02:20:38.779Z,16.37
2019-05-02T02:23:10.160Z,14.90
2019-05-02T02:25:45.298Z,15.30
2019-05-02T02:28:15.805Z,21.07
2019-05-02T02:30:46.335Z,17.37
2019-05-02T02:33:16.851Z,20.30
2019-05-02T02:35:50.351Z,24.23
2019-05-02T02:38:19.520Z,19.73
2019-05-02T02:40:49.999Z,17.30
2019-05-02T02:43:33.382Z,19.33
2019-05-02T02:46:04.319Z,16.57
2019-05-02T02:48:40.778Z,14.07
2019-05-02T02:51:07.771Z,17.53
2019-05-02T02:53:38.335Z,15.43
2019-05-02T02:56:10.640Z,16.23
2019-05-02T02:58:45.649Z,17.93
2019-05-02T03:01:27.344Z,17.37
2019-05-02T03:03:47.047Z,18.13
2019-05-02T03:06:17.614Z,18.80
2019-05-02T03:08:49.273Z,18.93
2019-05-02T03:11:23.831Z,16.47
2019-05-02T03:14:05.758Z,17.33
2019-05-02T03:16:29.241Z,19.00
2019-05-02T03:18:59.878Z,17.73
2019-05-02T03:21:30.368Z,19.60
2019-05-02T03:24:03.379Z,18.50
2019-05-02T03:26:33.965Z,17.23
2019-05-02T03:29:04.966Z,20.77
2019-05-02T03:31:35.478Z,16.53
2019-05-02T03:34:06.445Z,20.10
2019-05-02T03:36:37.439Z,18.60
2019-05-02T03:39:14.963Z,19.57
2019-05-02T03:41:40.431Z,17.57
2019-05-02T03:44:18.153Z,17.50
2019-05-02T03:46:43.836Z,18.53
2019-05-02T03:49:14.426Z,22.27
2019-05-02T03:51:44.914Z,19.50
2019-05-02T03:54:19.533Z,20.60
2019-05-02T03:56:51.087Z,18.53
2019-05-02T03:59:21.205Z,20.30
2019-05-02T04:01:51.999Z,18.70
2019-05-02T04:04:23.528Z,19.37
2019-05-02T04:06:55.069Z,19.27
2019-05-02T04:09:42.536Z,22.83
2019-05-02T04:12:18.702Z,22.27
2019-05-02T04:14:41.658Z,18.37
2019-05-02T04:17:12.589Z,17.53
2019-05-02T04:19:43.290Z,20.20
2019-05-02T04:22:15.538Z,20.67
2019-05-02T04:24:54.390Z,19.10
2019-05-02T04:27:18.243Z,20.57
2019-05-02T04:29:48.744Z,24.83
2019-05-02T04:32:19.221Z,19.17
2019-05-02T04:34:55.799Z,21.40
2019-05-02T04:37:21.879Z,18.13
2019-05-02T04:39:53.708Z,24.53
2019-05-02T04:42:24.558Z,34.07
2019-05-02T04:45:14.026Z,32.10
2019-05-02T04:47:29.044Z,23.43
2019-05-02T04:49:59.425Z,22.67
2019-05-02T04:52:29.885Z,24.50
2019-05-02T04:55:14.766Z,23.00
2019-05-02T04:57:36.731Z,21.20
2019-05-02T05:00:11.529Z,20.60
2019-05-02T05:02:40.356Z,17.80
2019-05-02T05:05:10.991Z,20.77
2019-05-02T05:07:46.225Z,18.40
2019-05-02T05:10:13.727Z,24.10
2019-05-02T05:12:44.208Z,24.67
2019-05-02T05:15:33.834Z,20.53
2019-05-02T05:17:47.893Z,21.67
2019-05-02T05:20:19.272Z,23.73
2019-05-02T05:22:49.730Z,23.00
2019-05-02T05:25:21.859Z,21.30
2019-05-02T05:27:57.244Z,21.60
2019-05-02T05:30:24.521Z,30.60
2019-05-02T05:32:55.032Z,22.43
2019-05-02T05:35:25.554Z,21.00
2019-05-02T05:37:57.345Z,25.20
2019-05-02T05:40:31.838Z,24.13
2019-05-02T05:43:02.676Z,24.53
2019-05-02T05:45:32.354Z,24.90
2019-05-02T05:48:02.842Z,26.60
2019-05-02T05:50:39.816Z,25.87
2019-05-02T05:53:07.497Z,26.60
2019-05-02T05:55:38.376Z,24.00
2019-05-02T05:58:15.218Z,24.70
2019-05-02T06:00:45.945Z,27.40
2019-05-02T06:03:14.221Z,28.33
2019-05-02T06:05:44.847Z,24.10
2019-05-02T06:08:18.346Z,21.63
2019-05-02T06:10:48.427Z,22.70
2019-05-02T06:13:18.904Z,26.00
2019-05-02T06:16:01.685Z,18.73
2019-05-02T06:18:21.577Z,19.20
2019-05-02T06:20:52.069Z,20.13
2019-05-02T06:23:22.575Z,19.17
2019-05-02T06:25:53.076Z,21.93
2019-05-02T06:28:23.585Z,20.20
2019-05-02T06:30:54.085Z,19.97
2019-05-02T06:33:25.950Z,21.07
2019-05-02T06:36:00.997Z,19.63
2019-05-02T06:38:29.003Z,18.87
2019-05-02T06:40:59.528Z,20.10
2019-05-02T06:43:29.991Z,19.47
2019-05-02T06:46:00.580Z,20.83
2019-05-02T06:48:31.047Z,19.43
2019-05-02T06:51:01.553Z,22.77
2019-05-02T06:53:34.959Z,19.47
2019-05-02T06:56:07.996Z,22.57
2019-05-02T06:58:37.140Z,17.10
2019-05-02T07:01:08.877Z,21.17
2019-05-02T07:03:41.389Z,20.57
2019-05-02T07:06:11.657Z,17.50
2019-05-02T07:08:42.164Z,18.43
2019-05-02T07:11:12.653Z,19.03
2019-05-02T07:13:43.825Z,17.10
2019-05-02T07:16:36.846Z,17.60
2019-05-02T07:18:52.746Z,18.70
2019-05-02T07:21:23.837Z,22.07
2019-05-02T07:23:55.245Z,17.20
2019-05-02T07:26:25.859Z,18.47
2019-05-02T07:28:56.375Z,16.93
2019-05-02T07:31:26.907Z,16.83
2019-05-02T07:33:57.382Z,20.43
2019-05-02T07:36:31.135Z,20.80
2019-05-02T07:39:05.183Z,19.40
2019-05-02T07:41:33.409Z,15.80
2019-05-02T07:44:04.439Z,17.00
2019-05-02T07:46:35.056Z,20.10
2019-05-02T07:49:06.564Z,17.10
2019-05-02T07:51:37.081Z,17.23
2019-05-02T07:54:07.620Z,15.73
2019-05-02T07:56:38.124Z,17.43
2019-05-02T07:59:08.600Z,15.37
2019-05-02T08:01:39.259Z,15.50
2019-05-02T08:04:12.842Z,16.73
2019-05-02T08:06:44.614Z,16.13
2019-05-02T08:09:14.175Z,16.70
2019-05-02T08:11:44.741Z,16.63
2019-05-02T08:14:15.236Z,15.50
2019-05-02T08:16:45.702Z,16.00
2019-05-02T08:19:16.207Z,15.20
2019-05-02T08:21:46.679Z,14.27
2019-05-02T08:24:17.184Z,15.50
2019-05-02T08:26:53.485Z,15.93
2019-05-02T08:29:23.344Z,15.67
2019-05-02T08:31:55.315Z,16.77
2019-05-02T08:34:33.514Z,18.40
2019-05-02T08:37:05.296Z,15.83
2019-05-02T08:39:35.859Z,14.40
2019-05-02T08:42:07.029Z,15.63
2019-05-02T08:44:50.223Z,15.87
2019-05-02T08:47:18.728Z,16.17
2019-05-02T08:49:42.604Z,23.20
2019-05-02T08:52:13.277Z,15.83
2019-05-02T08:54:43.799Z,15.23
2019-05-02T08:57:14.706Z,13.87
2019-05-02T08:59:45.347Z,13.83
2019-05-02T09:02:15.841Z,16.03
2019-05-02T09:04:57.865Z,15.37
2019-05-02T09:07:19.662Z,14.57
2019-05-02T09:09:50.218Z,14.80
2019-05-02T09:12:22.820Z,15.60
2019-05-02T09:14:52.899Z,16.17
2019-05-02T09:17:35.504Z,15.43
2019-05-02T09:20:02.271Z,15.53
2019-05-02T09:22:27.828Z,13.90
2019-05-02T09:24:58.362Z,15.20
2019-05-02T09:27:28.963Z,13.70
2019-05-02T09:29:59.448Z,13.70
2019-05-02T09:32:29.939Z,13.93
2019-05-02T09:35:02.299Z,14.40
2019-05-02T09:37:32.648Z,13.50
2019-05-02T09:40:06.831Z,14.30
2019-05-02T09:42:35.622Z,18.00
2019-05-02T09:45:09.488Z,14.03
2019-05-02T09:47:53.917Z,13.80
2019-05-02T09:50:20.538Z,14.43
2019-05-02T09:52:49.215Z,13.57
2019-05-02T09:55:20.003Z,15.40
2019-05-02T09:57:51.959Z,13.30
2019-05-02T10:00:36.045Z,14.27
2019-05-02T10:03:04.471Z,12.63
2019-05-02T10:05:35.086Z,13.53
2019-05-02T10:08:09.114Z,14.60
2019-05-02T10:10:44.335Z,12.57
2019-05-02T10:13:12.220Z,11.97
2019-05-02T10:15:42.751Z,11.63
2019-05-02T10:18:14.639Z,12.13
2019-05-02T10:20:45.589Z,12.73
2019-05-02T10:23:19.614Z,16.60
2019-05-02T10:25:48.263Z,12.50
2019-05-02T10:28:18.737Z,11.80
2019-05-02T10:30:52.584Z,11.43
2019-05-02T10:33:22.546Z,13.00
2019-05-02T10:35:53.258Z,11.37
2019-05-02T10:38:23.720Z,10.80
2019-05-02T10:41:01.574Z,12.30
2019-05-02T10:43:28.348Z,12.27
2019-05-02T10:46:01.828Z,12.07
2019-05-02T10:48:34.195Z,13.50
2019-05-02T10:51:25.874Z,11.63
2019-05-02T10:53:56.340Z,13.20
2019-05-02T10:56:25.716Z,12.10
2019-05-02T10:58:56.239Z,11.70
2019-05-02T11:01:28.387Z,11.90
2019-05-02T11:04:02.120Z,13.30
2019-05-02T11:06:37.256Z,11.93
2019-05-02T11:09:08.447Z,12.17
2019-05-02T11:11:39.749Z,13.07
2019-05-02T11:14:12.079Z,13.10
2019-05-02T11:16:44.186Z,13.00
2019-05-02T11:19:32.345Z,12.87
2019-05-02T11:22:03.008Z,11.90
2019-05-02T11:24:33.548Z,12.73
2019-05-02T11:27:04.254Z,11.13
2019-05-02T11:29:34.753Z,13.60
2019-05-02T11:32:05.422Z,15.30
2019-05-02T11:34:35.906Z,12.07
2019-05-02T11:37:06.606Z,11.50
2019-05-02T11:39:44.550Z,14.10
2019-05-02T11:42:09.352Z,12.10
2019-05-02T11:44:41.754Z,12.63
2019-05-02T11:47:12.686Z,12.10
2019-05-02T11:49:46.870Z,14.90
2019-05-02T11:52:15.456Z,12.37
2019-05-02T11:54:48.523Z,11.87
2019-05-02T11:57:22.726Z,12.90
2019-05-02T11:59:52.084Z,13.20
2019-05-02T12:02:34.390Z,11.27
2019-05-02T12:05:08.918Z,13.07
2019-05-02T12:07:39.420Z,12.60
2019-05-02T12:10:12.398Z,14.43
2019-05-02T12:12:42.968Z,11.87
2019-05-02T12:15:13.637Z,12.00
2019-05-02T12:17:44.155Z,10.83
2019-05-02T12:20:14.771Z,12.33
2019-05-02T12:22:45.324Z,11.70
2019-05-02T12:25:15.859Z,12.93
2019-05-02T12:27:46.457Z,12.37
2019-05-02T12:30:17.205Z,19.13
2019-05-02T12:32:47.727Z,12.70
2019-05-02T12:35:18.296Z,12.60
2019-05-02T12:37:53.692Z,16.10
2019-05-02T12:40:21.766Z,16.13
2019-05-02T12:42:52.614Z,13.90
2019-05-02T12:45:23.270Z,14.27
2019-05-02T12:47:53.756Z,13.80
2019-05-02T12:50:24.397Z,15.73
2019-05-02T12:52:55.725Z,14.50
2019-05-02T12:55:26.404Z,12.73
2019-05-02T12:57:56.879Z,11.53
2019-05-02T13:00:27.451Z,14.77
2019-05-02T13:03:01.988Z,13.20
2019-05-02T13:05:32.683Z,13.13
2019-05-02T13:08:03.189Z,14.60
2019-05-02T13:10:36.174Z,13.63
2019-05-02T13:13:07.019Z,10.17
2019-05-02T13:15:39.375Z,9.73
2019-05-02T13:18:09.956Z,11.20
2019-05-02T13:20:41.729Z,10.87
2019-05-02T13:23:34.092Z,11.60
2019-05-02T13:26:10.232Z,9.93
2019-05-02T13:28:36.126Z,11.33
2019-05-02T13:31:06.728Z,15.33
2019-05-02T13:33:42.790Z,12.20
2019-05-02T13:36:42.124Z,11.53
2019-05-02T13:39:17.378Z,11.57
2019-05-02T13:41:48.070Z,11.20
2019-05-02T13:44:21.838Z,10.60
2019-05-02T13:46:53.588Z,10.87
2019-05-02T13:49:24.285Z,10.67
2019-05-02T13:51:54.811Z,11.10
2019-05-02T13:54:25.777Z,10.40
2019-05-02T13:56:56.337Z,12.90
2019-05-02T13:59:26.845Z,11.93
2019-05-02T14:01:57.315Z,11.70
2019-05-02T14:04:41.530Z,11.33
2019-05-02T14:07:17.259Z,11.37
2019-05-02T14:09:45.885Z,12.20
2019-05-02T14:12:16.208Z,11.97
2019-05-02T14:14:48.339Z,13.27
2019-05-02T14:17:18.912Z,11.77
2019-05-02T14:19:53.015Z,12.13
2019-05-02T14:22:23.311Z,11.97
2019-05-02T14:24:53.812Z,14.03
2019-05-02T14:27:26.191Z,11.73
2019-05-02T14:29:56.802Z,11.47
2019-05-02T14:32:27.303Z,10.93
2019-05-02T14:34:59.901Z,11.77
2019-05-02T14:37:32.067Z,11.37
2019-05-02T14:40:04.363Z,10.93
2019-05-02T14:42:35.118Z,11.90
2019-05-02T14:45:17.793Z,17.03
2019-05-02T14:47:39.457Z,15.00
2019-05-02T14:50:23.482Z,11.40
2019-05-02T14:52:45.750Z,16.30
2019-05-02T14:55:17.101Z,10.23
2019-05-02T14:57:48.822Z,13.53
2019-05-02T15:00:22.235Z,11.70
2019-05-02T15:02:52.804Z,10.50
2019-05-02T15:05:27.894Z,10.50
2019-05-02T15:08:01.188Z,12.20
2019-05-02T15:10:27.845Z,10.50
2019-05-02T15:12:59.457Z,10.80
2019-05-02T15:15:33.959Z,13.47
2019-05-02T15:18:02.808Z,18.00
2019-05-02T15:20:38.894Z,13.27
2019-05-02T15:23:07.201Z,12.03
2019-05-02T15:25:37.730Z,24.63
2019-05-02T15:28:09.841Z,11.80
2019-05-02T15:30:44.808Z,11.63
2019-05-02T15:33:17.025Z,11.07
2019-05-02T15:35:47.984Z,10.30
2019-05-02T15:38:24.596Z,10.20
2019-05-02T15:40:53.497Z,11.17
2019-05-02T15:43:22.818Z,9.93
2019-05-02T15:45:53.325Z,12.30
2019-05-02T15:48:27.519Z,10.67
2019-05-02T15:50:59.994Z,11.33
2019-05-02T15:53:39.001Z,15.13
2019-05-02T15:56:18.599Z,11.87
2019-05-02T15:58:39.993Z,11.27
2019-05-02T16:01:11.994Z,12.33
2019-05-02T16:03:46.281Z,11.40
2019-05-02T16:06:21.070Z,11.43
2019-05-02T16:08:48.723Z,11.07
2019-05-02T16:11:19.807Z,11.13
2019-05-02T16:13:55.633Z,16.97
2019-05-02T16:16:24.200Z,11.47
2019-05-02T16:18:54.716Z,31.60
2019-05-02T16:21:30.637Z,17.17
2019-05-02T16:24:22.498Z,13.00
2019-05-02T16:26:56.832Z,12.30
2019-05-02T16:29:28.710Z,12.10
2019-05-02T16:32:06.322Z,11.93
2019-05-02T16:34:54.206Z,11.80
2019-05-02T16:37:22.762Z,11.23
2019-05-02T16:39:54.802Z,11.60
2019-05-02T16:42:25.286Z,11.80
2019-05-02T16:44:55.790Z,10.93
2019-05-02T16:47:26.335Z,11.67
2019-05-02T16:49:56.836Z,18.10
2019-05-02T16:52:27.335Z,11.60
2019-05-02T16:54:57.861Z,11.93
2019-05-02T16:57:28.405Z,11.87
2019-05-02T17:00:01.249Z,16.40
2019-05-02T17:02:32.466Z,11.90
2019-05-02T17:05:08.367Z,11.70
2019-05-02T17:07:41.091Z,11.20
2019-05-02T17:10:17.619Z,10.47
2019-05-02T17:12:47.245Z,10.70
2019-05-02T17:15:35.738Z,11.90
2019-05-02T17:18:18.006Z,12.83
2019-05-02T17:20:39.754Z,10.93
2019-05-02T17:23:12.794Z,12.27
2019-05-02T17:25:43.414Z,10.70
2019-05-02T17:28:13.984Z,10.83
2019-05-02T17:30:44.452Z,10.27
2019-05-02T17:33:16.386Z,10.70
2019-05-02T17:35:52.234Z,13.73
2019-05-02T17:38:27.280Z,12.30
2019-05-02T17:40:54.255Z,12.53
2019-05-02T17:43:23.859Z,12.60
2019-05-02T17:45:56.256Z,11.10
2019-05-02T17:48:26.563Z,11.10
2019-05-02T17:50:59.417Z,10.70
2019-05-02T17:53:33.931Z,12.10
2019-05-02T17:56:02.494Z,11.67
2019-05-02T17:58:33.047Z,11.57
2019-05-02T18:01:05.264Z,11.67
2019-05-02T18:03:35.767Z,12.50
2019-05-02T18:06:07.621Z,11.40
2019-05-02T18:08:38.678Z,12.83
2019-05-02T18:11:09.240Z,12.00
2019-05-02T18:13:39.715Z,15.00
2019-05-02T18:16:15.033Z,14.47
2019-05-02T18:18:45.689Z,13.73
2019-05-02T18:21:17.235Z,13.80
2019-05-02T18:23:47.508Z,14.23
2019-05-02T18:26:19.499Z,15.77
2019-05-02T18:28:49.992Z,14.07
2019-05-02T18:31:21.697Z,14.30
2019-05-02T18:33:52.276Z,18.00
2019-05-02T18:36:26.832Z,16.90
2019-05-02T18:39:00.669Z,17.83
2019-05-02T18:41:27.851Z,17.70
2019-05-02T18:43:58.426Z,18.77
2019-05-02T18:46:28.915Z,16.23
2019-05-02T18:48:59.424Z,15.83
2019-05-02T18:51:31.977Z,18.43
2019-05-02T18:54:04.593Z,20.10
2019-05-02T18:56:44.232Z,16.17
2019-05-02T18:59:06.862Z,17.30
2019-05-02T19:01:37.416Z,15.87
2019-05-02T19:04:08.051Z,16.53
2019-05-02T19:06:39.151Z,17.77
2019-05-02T19:09:12.781Z,17.40
2019-05-02T19:11:45.137Z,15.90
2019-05-02T19:14:21.224Z,15.93
2019-05-02T19:16:47.866Z,17.57
2019-05-02T19:19:18.339Z,15.57
2019-05-02T19:21:51.632Z,17.10
2019-05-02T19:24:27.486Z,18.20
2019-05-02T19:26:59.055Z,17.30
2019-05-02T19:29:31.904Z,15.83
2019-05-02T19:32:02.911Z,14.73
2019-05-02T19:34:33.706Z,14.53
2019-05-02T19:37:04.648Z,19.07
2019-05-02T19:39:38.971Z,18.40
2019-05-02T19:42:12.299Z,17.80
2019-05-02T19:44:43.055Z,17.57
2019-05-02T19:47:17.495Z,15.70
2019-05-02T19:49:47.252Z,14.70
2019-05-02T19:52:18.016Z,18.97
2019-05-02T19:54:48.503Z,15.87
2019-05-02T19:57:38.369Z,14.53
2019-05-02T20:00:08.978Z,15.20
2019-05-02T20:02:42.278Z,15.70
2019-05-02T20:05:16.459Z,14.13
2019-05-02T20:07:44.441Z,17.67
2019-05-02T20:10:17.898Z,16.63
2019-05-02T20:12:50.900Z,17.10
2019-05-02T20:15:26.938Z,15.80
2019-05-02T20:18:00.631Z,14.33
2019-05-02T20:21:05.173Z,14.57
2019-05-02T20:23:35.939Z,15.67
2019-05-02T20:26:09.405Z,16.83
2019-05-02T20:28:39.472Z,16.43
2019-05-02T20:31:12.313Z,16.23
2019-05-02T20:33:43.218Z,16.50
2019-05-02T20:36:13.699Z,18.50
2019-05-02T20:38:44.199Z,16.90
2019-05-02T20:41:14.753Z,16.63
2019-05-02T20:43:45.247Z,15.80
2019-05-02T20:46:15.831Z,16.43
2019-05-02T20:48:46.406Z,14.90
2019-05-02T20:51:16.909Z,16.33
2019-05-02T20:53:47.414Z,15.23
2019-05-02T20:56:17.883Z,16.07
2019-05-02T20:58:48.455Z,14.57
2019-05-02T21:01:18.917Z,15.17
2019-05-02T21:03:49.413Z,16.87
2019-05-02T21:06:31.028Z,18.23
2019-05-02T21:09:02.229Z,16.77
2019-05-02T21:11:32.986Z,17.50
2019-05-02T21:14:03.496Z,16.80
2019-05-02T21:16:34.032Z,17.53
2019-05-02T21:19:04.746Z,17.63
2019-05-02T21:21:39.901Z,19.33
2019-05-02T21:24:09.416Z,19.03
2019-05-02T21:26:41.995Z,16.77
2019-05-02T21:29:12.265Z,21.60
2019-05-02T21:31:42.742Z,19.73
2019-05-02T21:34:13.244Z,17.03
2019-05-02T21:36:43.721Z,21.20
2019-05-02T21:39:14.383Z,17.60
2019-05-02T21:41:44.849Z,17.33
2019-05-02T21:44:15.430Z,21.47
2019-05-02T21:46:46.266Z,19.50
2019-05-02T21:49:19.062Z,18.13
2019-05-02T21:51:51.836Z,16.97
2019-05-02T21:54:27.012Z,16.53
2019-05-02T21:57:00.035Z,21.03
2019-05-02T21:59:30.559Z,16.80
2019-05-02T22:02:05.176Z,18.17
2019-05-02T22:04:36.387Z,20.83
2019-05-02T22:07:06.951Z,17.03
2019-05-02T22:09:37.424Z,16.33
2019-05-02T22:12:08.003Z,17.23
2019-05-02T22:14:38.471Z,15.20
2019-05-02T22:17:12.596Z,15.80
2019-05-02T22:19:42.839Z,18.40
2019-05-02T22:22:13.708Z,18.90
2019-05-02T22:24:44.180Z,18.33
2019-05-02T22:27:14.697Z,15.63
2019-05-02T22:29:45.164Z,16.97
2019-05-02T22:32:15.654Z,15.57
2019-05-02T22:34:47.686Z,18.50
2019-05-02T22:37:21.957Z,15.93
2019-05-02T22:39:53.632Z,16.10
2019-05-02T22:42:24.251Z,16.47
2019-05-02T22:44:54.737Z,20.17
2019-05-02T22:47:25.346Z,16.20
2019-05-02T22:49:55.863Z,16.40
2019-05-02T22:52:26.329Z,16.77
2019-05-02T22:54:56.831Z,15.60
2019-05-02T22:57:28.841Z,16.97
2019-05-02T22:59:59.357Z,19.43
2019-05-02T23:02:29.826Z,14.23
2019-05-02T23:05:01.973Z,15.37
2019-05-02T23:07:32.696Z,16.13
2019-05-02T23:10:04.305Z,16.40
2019-05-02T23:12:35.440Z,15.40
2019-05-02T23:15:07.361Z,15.00
2019-05-02T23:17:37.848Z,14.13
2019-05-02T23:20:08.456Z,15.30
2019-05-02T23:22:38.960Z,15.30
2019-05-02T23:25:09.260Z,15.90
2019-05-02T23:27:42.405Z,13.10
2019-05-02T23:30:15.725Z,14.57
2019-05-02T23:32:46.220Z,15.43
2019-05-02T23:35:16.766Z,15.67
2019-05-02T23:37:48.383Z,14.27
2019-05-02T23:40:18.986Z,15.80
2019-05-02T23:42:50.054Z,17.70
2019-05-02T23:45:22.470Z,15.83
2019-05-02T23:47:52.884Z,14.67
2019-05-02T23:50:23.426Z,15.53
2019-05-02T23:52:53.923Z,15.77
2019-05-02T23:55:24.441Z,13.83
2019-05-02T23:57:54.913Z,14.37
